Time;durP1;ratioP1;P1;durP2;ratioP2;P2;SDS_P1;SDS_P2;PMS_P1;PMS_P2;Temp;Humidity;BMP_temperature;BMP_pressure;BME280_temperature;BME280_humidity;BME280_pressure;Samples;Min_cycle;Max_cycle;Signal;HPM_P1;HPM_P2
2022/12/14 00:00:28;;;;;;;9.67;3.93;;;;;;;17.93;34.32;100376.19;5023133;28;20041;-65
2022/12/14 00:02:54;;;;;;;7.95;3.60;;;;;;;17.94;34.18;100364.69;5022582;28;20276;-65
2022/12/14 00:05:19;;;;;;;10.20;4.00;;;;;;;17.92;34.11;100350.78;5021846;28;20057;-65
2022/12/14 00:07:44;;;;;;;9.67;4.00;;;;;;;17.90;34.08;100349.28;5023091;28;20057;-66
2022/12/14 00:10:10;;;;;;;7.25;3.50;;;;;;;17.89;34.26;100337.88;5023384;28;20279;-65
2022/12/14 00:12:36;;;;;;;6.78;3.33;;;;;;;17.86;34.51;100330.22;5019273;28;20993;-64
2022/12/14 00:15:01;;;;;;;7.88;3.80;;;;;;;17.88;34.41;100335.38;5022584;28;20060;-66
2022/12/14 00:17:27;;;;;;;9.07;3.67;;;;;;;17.88;34.36;100336.25;5037709;28;20038;-65
2022/12/14 00:19:52;;;;;;;7.72;3.40;;;;;;;17.85;33.96;100323.28;5022884;28;20038;-67
2022/12/14 00:22:17;;;;;;;7.70;3.38;;;;;;;17.88;34.20;100327.47;5022855;28;20030;-65
2022/12/14 00:24:43;;;;;;;8.27;4.05;;;;;;;17.84;34.24;100332.16;5022819;28;20037;-66
2022/12/14 00:27:08;;;;;;;8.45;3.67;;;;;;;17.86;34.36;100334.66;5022462;28;20567;-67
2022/12/14 00:29:33;;;;;;;8.82;4.00;;;;;;;17.84;34.41;100329.53;5022827;28;20041;-64
2022/12/14 00:31:58;;;;;;;7.93;3.80;;;;;;;17.84;34.46;100332.16;5022540;28;20034;-67
2022/12/14 00:34:24;;;;;;;11.35;3.88;;;;;;;17.82;34.01;100328.84;5022110;28;20326;-67
2022/12/14 00:36:49;;;;;;;7.30;3.45;;;;;;;17.83;34.16;100329.66;5022632;28;20119;-65
2022/12/14 00:39:14;;;;;;;6.88;3.97;;;;;;;17.81;34.13;100321.06;5022984;28;20128;-67
2022/12/14 00:41:40;;;;;;;7.97;3.67;;;;;;;17.81;34.37;100323.69;5021369;28;20508;-65
2022/12/14 00:44:05;;;;;;;7.13;3.65;;;;;;;17.77;34.44;100309.97;5022468;28;20508;-65
2022/12/14 00:46:30;;;;;;;8.25;3.90;;;;;;;17.76;34.10;100306.47;5021540;28;20033;-63
2022/12/14 00:48:55;;;;;;;8.68;3.70;;;;;;;17.79;34.25;100310.66;5022224;28;20806;-65
2022/12/14 00:51:21;;;;;;;7.97;3.70;;;;;;;17.74;34.18;100295.25;5022396;28;20478;-67
2022/12/14 00:53:46;;;;;;;8.52;3.60;;;;;;;17.75;34.29;100298.69;5022542;28;20532;-66
2022/12/14 00:56:11;;;;;;;7.45;3.72;;;;;;;17.76;34.35;100300.38;5022207;28;20073;-66
2022/12/14 00:58:37;;;;;;;9.05;3.70;;;;;;;17.74;34.29;100300.50;5021929;28;20064;-65
2022/12/14 01:01:08;;;;;;;8.90;3.40;;;;;;;17.72;34.27;100297.19;5021896;28;20029;-67
2022/12/14 01:03:34;;;;;;;7.57;3.40;;;;;;;17.73;34.25;100304.09;5021064;28;20091;-66
2022/12/14 01:05:59;;;;;;;7.90;3.80;;;;;;;17.71;34.58;100294.69;5022222;28;20041;-66
2022/12/14 01:08:25;;;;;;;7.88;3.55;;;;;;;17.71;34.30;100292.06;5021888;28;20041;-65
2022/12/14 01:10:50;;;;;;;8.32;3.38;;;;;;;17.62;34.09;100280.50;5022208;28;20103;-65
2022/12/14 01:13:16;;;;;;;7.43;3.60;;;;;;;17.68;34.13;100282.59;5021802;28;20037;-65
2022/12/14 01:15:41;;;;;;;8.57;3.63;;;;;;;17.66;34.21;100279.28;5021342;28;20040;-66
2022/12/14 01:18:06;;;;;;;7.72;3.92;;;;;;;17.63;34.00;100268.19;5021617;28;20037;-65
2022/12/14 01:20:32;;;;;;;8.05;3.50;;;;;;;17.68;34.22;100281.78;5021600;28;20033;-66
2022/12/14 01:22:57;;;;;;;8.50;3.80;;;;;;;17.65;34.24;100272.31;5021640;28;20038;-65
2022/12/14 01:25:23;;;;;;;8.50;3.55;;;;;;;17.63;34.09;100274.28;5021870;28;20037;-65
2022/12/14 01:27:48;;;;;;;9.13;3.53;;;;;;;17.63;34.28;100269.00;5021619;28;20397;-64
2022/12/14 01:30:14;;;;;;;7.13;3.25;;;;;;;17.64;34.39;100283.84;5021322;28;20033;-65
2022/12/14 01:32:39;;;;;;;9.20;3.50;;;;;;;17.61;34.42;100264.81;5020908;28;20034;-65
2022/12/14 01:35:04;;;;;;;10.93;3.70;;;;;;;17.62;34.51;100271.78;5020859;28;20466;-64
2022/12/14 01:37:30;;;;;;;9.30;3.63;;;;;;;17.62;34.57;100269.97;5019375;28;20092;-64
2022/12/14 01:39:55;;;;;;;9.48;3.65;;;;;;;17.58;34.12;100269.41;5021220;28;20037;-66
2022/12/14 01:42:20;;;;;;;10.45;4.07;;;;;;;17.58;34.02;100276.50;5021034;28;20041;-66
2022/12/14 01:44:53;;;;;;;8.48;3.65;;;;;;;17.56;34.08;100271.34;5020874;28;20041;-65
2022/12/14 01:47:39;;;;;;;9.13;3.30;;;;;;;17.58;33.99;100277.31;5020664;28;20076;-66
2022/12/14 01:50:29;;;;;;;7.30;3.53;;;;;;;17.57;34.32;100280.06;5021570;28;20099;-66
2022/12/14 01:53:00;;;;;;;9.05;3.83;;;;;;;17.54;34.06;100270.63;5020571;28;20040;-65
2022/12/14 01:55:34;;;;;;;8.18;3.38;;;;;;;17.56;34.30;100270.50;5018443;28;20030;-65
2022/12/14 01:58:08;;;;;;;7.05;3.40;;;;;;;17.53;34.11;100268.13;5020741;28;20474;-66
2022/12/14 02:00:34;;;;;;;8.57;3.22;;;;;;;17.51;34.33;100260.34;5020019;28;20124;-67
2022/12/14 02:03:14;;;;;;;7.03;3.55;;;;;;;17.49;34.40;100257.03;5019045;28;20136;-66
2022/12/14 02:05:45;;;;;;;7.82;3.53;;;;;;;17.49;34.23;100251.75;5020888;28;20116;-68
2022/12/14 02:08:11;;;;;;;8.00;3.40;;;;;;;17.50;34.24;100256.06;5020757;28;20120;-66
2022/12/14 02:10:36;;;;;;;8.13;3.55;;;;;;;17.48;34.47;100252.75;5020923;28;20120;-67
2022/12/14 02:13:16;;;;;;;9.15;3.40;;;;;;;17.47;34.58;100250.25;5020390;28;20029;-66
2022/12/14 02:15:42;;;;;;;9.27;3.53;;;;;;;17.47;33.96;100242.34;5018415;28;20037;-67
2022/12/14 02:18:14;;;;;;;7.35;3.78;;;;;;;17.48;34.18;100246.63;5020791;28;20036;-68
2022/12/14 02:20:52;;;;;;;9.45;3.80;;;;;;;17.46;34.21;100238.84;5020840;28;20037;-66
2022/12/14 02:23:37;;;;;;;9.27;3.60;;;;;;;17.44;34.12;100230.28;5021051;28;20033;-67
2022/12/14 02:26:27;;;;;;;8.05;3.83;;;;;;;17.47;34.34;100244.97;5020035;28;20621;-66
2022/12/14 02:29:26;;;;;;;8.60;3.80;;;;;;;17.46;34.10;100241.50;5021026;28;20165;-67
2022/12/14 02:32:11;;;;;;;8.55;3.60;;;;;;;17.45;34.02;100239.00;5021091;28;20038;-67
2022/12/14 02:34:42;;;;;;;7.30;3.40;;;;;;;17.44;34.30;100237.34;5020485;28;20033;-67
2022/12/14 02:37:37;;;;;;;6.68;3.17;;;;;;;17.44;34.02;100234.72;5020759;28;20115;-67
2022/12/14 02:40:21;;;;;;;8.27;3.30;;;;;;;17.41;34.22;100231.38;5020567;28;20042;-67
2022/12/14 02:43:05;;;;;;;7.75;4.05;;;;;;;17.39;34.20;100220.13;5022694;28;20041;-64
2022/12/14 02:45:40;;;;;;;9.55;3.42;;;;;;;17.37;34.16;100227.34;5024857;28;20842;-66
2022/12/14 02:48:12;;;;;;;8.10;3.35;;;;;;;17.38;34.04;100222.91;5024347;28;20040;-67
2022/12/14 02:50:50;;;;;;;8.85;3.63;;;;;;;17.36;34.14;100217.78;5024534;28;20739;-66
2022/12/14 02:53:27;;;;;;;7.82;3.10;;;;;;;17.36;34.16;100216.94;5024004;28;20033;-66
2022/12/14 02:55:57;;;;;;;9.68;3.72;;;;;;;17.35;34.01;100221.34;5023532;28;20037;-66
2022/12/14 02:58:27;;;;;;;10.02;3.25;;;;;;;17.35;34.29;100226.63;5024207;28;20947;-65
2022/12/14 03:00:55;;;;;;;10.57;3.80;;;;;;;17.36;34.22;100228.31;5024263;28;20121;-64
2022/12/14 03:03:20;;;;;;;9.70;3.75;;;;;;;17.34;34.14;100226.75;5024220;28;20063;-65
2022/12/14 03:06:09;;;;;;;8.55;3.33;;;;;;;17.34;34.18;100229.41;5024118;28;20469;-65
2022/12/14 03:08:35;;;;;;;6.75;3.20;;;;;;;17.34;34.07;100218.84;5024394;28;20029;-66
2022/12/14 03:11:03;;;;;;;7.05;3.15;;;;;;;17.35;34.13;100229.25;5023980;28;20043;-66
2022/12/14 03:14:05;;;;;;;9.20;3.40;;;;;;;17.32;34.04;100224.28;5023637;28;20187;-65
2022/12/14 03:16:40;;;;;;;7.57;3.33;;;;;;;17.34;33.89;100227.63;5024068;28;20057;-66
2022/12/14 03:19:14;;;;;;;6.72;3.00;;;;;;;17.31;34.04;100217.34;5023932;28;20048;-67
2022/12/14 03:21:42;;;;;;;;;;;;;;;17.40;34.31;100213.91;5024369;28;20065;-66
2022/12/14 03:24:11;;;;;;;9.57;3.80;;;;;;;17.35;34.09;100204.72;5023765;28;19913;-66
2022/12/14 03:26:44;;;;;;;8.32;3.17;;;;;;;17.36;33.98;100212.50;5023524;28;20751;-65
2022/12/14 03:29:17;;;;;;;9.40;4.38;;;;;;;17.34;34.04;100200.41;5023947;28;20037;-66
2022/12/14 03:31:48;;;;;;;7.38;3.00;;;;;;;17.34;34.30;100190.75;5023701;28;20033;-65
2022/12/14 03:34:17;;;;;;;7.68;3.22;;;;;;;17.37;34.26;100186.97;5023202;28;20867;-64
2022/12/14 03:36:55;;;;;;;6.15;3.25;;;;;;;17.36;34.47;100180.91;5023584;28;20057;-65
2022/12/14 03:39:27;;;;;;;8.90;3.40;;;;;;;17.36;34.05;100178.25;5023637;28;20036;-64
2022/12/14 03:42:04;;;;;;;6.78;3.00;;;;;;;17.35;34.50;100176.59;5023829;28;20037;-65
2022/12/14 03:44:37;;;;;;;6.70;3.42;;;;;;;17.36;34.68;100175.63;5023390;28;20025;-65
2022/12/14 03:47:33;;;;;;;6.95;3.05;;;;;;;17.36;34.44;100180.06;5023674;28;20033;-65
2022/12/14 03:50:05;;;;;;;6.28;3.30;;;;;;;17.37;34.33;100184.34;5023726;28;20049;-65
2022/12/14 03:52:58;;;;;;;6.80;3.08;;;;;;;17.38;34.60;100181.59;5022748;28;20167;-67
2022/12/14 03:55:33;;;;;;;7.53;3.30;;;;;;;17.36;34.43;100175.63;5023279;28;20421;-66
2022/12/14 03:58:04;;;;;;;;;;;;;;;17.45;34.49;100173.13;5023296;28;20166;-66
2022/12/14 04:00:39;;;;;;;7.20;3.15;;;;;;;17.40;34.58;100169.13;5023266;28;19967;-66
2022/12/14 04:03:17;;;;;;;8.75;3.38;;;;;;;17.40;34.70;100168.28;5023503;28;20045;-66
2022/12/14 04:05:48;;;;;;;6.15;3.25;;;;;;;17.39;34.82;100156.91;5023400;28;20044;-66
2022/12/14 04:08:32;;;;;;;9.55;3.75;;;;;;;17.39;34.77;100156.09;5023234;28;20069;-66
2022/12/14 04:19:41;;;;;;;6.55;2.78;;;;;;;17.37;34.45;100140.44;5023038;28;20500;-65
2022/12/14 04:22:15;;;;;;;7.30;3.38;;;;;;;17.38;34.76;100138.63;5022106;28;20034;-65
2022/12/14 04:27:52;;;;;;;8.25;3.13;;;;;;;17.40;34.55;100141.94;5021436;28;20048;-64
2022/12/14 04:30:17;;;;;;;5.70;3.00;;;;;;;17.39;34.90;100133.22;5023029;28;20041;-65
2022/12/14 04:32:58;;;;;;;7.57;2.92;;;;;;;17.40;34.89;100134.03;5022093;28;20041;-66
2022/12/14 04:35:36;;;;;;;6.63;2.80;;;;;;;17.40;34.68;100140.16;5021003;28;20025;-65
2022/12/14 04:38:06;;;;;;;6.07;2.95;;;;;;;17.37;34.88;100127.25;5022136;28;20033;-65
2022/12/14 04:40:37;;;;;;;7.85;3.05;;;;;;;17.38;34.80;100123.63;5022302;28;20086;-65
2022/12/14 04:43:08;;;;;;;9.15;3.28;;;;;;;17.36;34.77;100120.31;5021533;28;20044;-64
2022/12/14 04:45:40;;;;;;;6.85;3.00;;;;;;;17.37;34.99;100122.00;5021676;28;20363;-66
2022/12/14 04:48:22;;;;;;;8.95;3.20;;;;;;;17.39;34.51;100113.94;5021415;28;20037;-66
2022/12/14 04:50:53;;;;;;;7.63;3.30;;;;;;;17.38;34.66;100117.53;5020988;28;20473;-66
2022/12/14 04:53:25;;;;;;;8.00;3.28;;;;;;;17.38;34.94;100115.72;5019668;28;20041;-66
2022/12/14 04:56:03;;;;;;;7.70;3.22;;;;;;;17.37;34.63;100119.34;5022456;28;20033;-66
2022/12/14 04:58:29;;;;;;;6.53;3.20;;;;;;;17.39;35.05;100117.41;5020763;28;20064;-65
2022/12/14 05:01:22;;;;;;;6.32;3.20;;;;;;;17.41;34.93;100118.09;5021299;28;21047;-66
2022/12/14 05:03:57;;;;;;;8.07;3.30;;;;;;;17.42;34.64;100111.03;5021394;28;20103;-65
2022/12/14 05:06:25;;;;;;;6.22;3.20;;;;;;;17.41;34.85;100120.72;5020748;28;20503;-66
2022/12/14 05:09:10;;;;;;;6.45;3.30;;;;;;;17.42;34.61;100118.94;5021828;28;20061;-64
2022/12/14 05:11:46;;;;;;;;;;;;;;;17.47;34.92;100116.72;5020167;28;20025;-67
2022/12/14 05:14:33;;;;;;;5.90;2.92;;;;;;;17.42;34.67;100111.03;5021565;28;20713;-66
2022/12/14 05:17:02;;;;;;;5.50;2.92;;;;;;;17.42;34.90;100111.03;5021177;28;20072;-66
2022/12/14 05:19:28;;;;;;;5.90;3.03;;;;;;;17.43;35.06;100107.41;5021616;28;20065;-66
2022/12/14 05:21:54;;;;;;;7.17;3.23;;;;;;;17.39;34.64;100096.34;5021603;28;20071;-66
2022/12/14 05:24:19;;;;;;;7.00;3.35;;;;;;;17.38;35.17;100094.66;5021531;28;20259;-65
2022/12/14 05:26:44;;;;;;;7.88;3.33;;;;;;;17.41;34.63;100099.66;5019968;28;20040;-67
2022/12/14 05:29:10;;;;;;;9.18;3.30;;;;;;;17.40;34.90;100103.28;5021209;28;20504;-67
2022/12/14 05:31:35;;;;;;;8.75;3.45;;;;;;;17.39;35.03;100098.16;5021573;28;20397;-67
2022/12/14 05:34:01;;;;;;;7.75;3.42;;;;;;;17.40;34.81;100095.38;5002284;28;20124;-66
2022/12/14 05:36:26;;;;;;;7.22;3.70;;;;;;;17.39;35.00;100091.06;5021122;28;20057;-65
2022/12/14 05:38:52;;;;;;;8.55;3.13;;;;;;;17.41;34.78;100090.94;5020623;28;20120;-65
2022/12/14 05:41:17;;;;;;;8.40;3.60;;;;;;;17.44;35.59;100095.09;5003365;28;20033;-65
2022/12/14 05:43:42;;;;;;;7.10;2.53;;;;;;;17.45;36.26;100084.44;5020413;28;20037;-64
2022/12/14 05:46:10;;;;;;;5.97;3.00;;;;;;;17.48;36.81;100088.56;5021331;28;20037;-66
2022/12/14 05:48:35;;;;;;;6.53;2.67;;;;;;;17.53;37.19;100089.84;5019502;28;20037;-65
2022/12/14 05:51:10;;;;;;;6.85;2.67;;;;;;;17.58;37.24;100095.50;5020546;28;20298;-65
2022/12/14 05:53:35;;;;;;;;;;;;;;;17.72;37.33;100098.69;5021378;28;20033;-65
2022/12/14 05:56:01;;;;;;;6.05;2.75;;;;;;;17.73;37.22;100095.91;5019966;28;20255;-67
2022/12/14 05:58:27;;;;;;;6.65;2.53;;;;;;;17.76;37.31;100092.16;5020195;28;20037;-67
2022/12/14 06:00:53;;;;;;;5.95;2.72;;;;;;;17.81;37.13;100094.38;5021280;28;20885;-67
2022/12/14 06:03:19;;;;;;;7.25;2.38;;;;;;;17.81;37.21;100087.31;5018837;28;20436;-66
2022/12/14 06:05:44;;;;;;;7.68;2.42;;;;;;;17.85;37.23;100091.34;5021179;28;20037;-66
2022/12/14 06:08:09;;;;;;;7.20;2.75;;;;;;;17.88;36.96;100096.34;5021116;28;20029;-67
2022/12/14 06:10:34;;;;;;;7.32;2.55;;;;;;;17.90;36.97;100083.03;5020969;28;20951;-66
2022/12/14 06:13:00;;;;;;;6.43;2.60;;;;;;;17.92;36.87;100075.81;5020301;28;20044;-67
2022/12/14 06:15:26;;;;;;;5.82;2.53;;;;;;;17.97;37.19;100083.28;5020918;28;20029;-67
2022/12/14 06:17:52;;;;;;;7.55;2.80;;;;;;;17.99;37.09;100076.06;5021240;28;20111;-67
2022/12/14 06:20:17;;;;;;;6.50;2.87;;;;;;;18.01;37.03;100077.59;5020848;28;20057;-66
2022/12/14 06:22:42;;;;;;;7.85;3.25;;;;;;;18.03;36.90;100077.47;5021148;28;20769;-66
2022/12/14 06:25:08;;;;;;;5.72;2.60;;;;;;;18.04;37.09;100084.38;5035693;28;20037;-66
2022/12/14 06:27:34;;;;;;;6.72;2.50;;;;;;;18.05;36.80;100086.03;5002632;28;20025;-67
2022/12/14 06:29:59;;;;;;;6.85;2.63;;;;;;;18.05;37.05;100081.59;5021036;28;20037;-65
2022/12/14 06:32:25;;;;;;;6.40;2.90;;;;;;;18.05;36.88;100078.13;5020603;28;20048;-66
2022/12/14 06:34:50;;;;;;;7.78;2.63;;;;;;;18.05;36.95;100075.50;5020954;28;20113;-67
2022/12/14 06:37:16;;;;;;;6.07;2.40;;;;;;;18.05;36.93;100080.78;5002597;28;20136;-65
2022/12/14 06:39:41;;;;;;;6.68;2.55;;;;;;;18.08;37.32;100077.84;5020867;28;20086;-66
2022/12/14 06:42:07;;;;;;;7.55;2.65;;;;;;;18.09;37.01;100079.53;5020544;28;20029;-66
2022/12/14 06:44:33;;;;;;;7.68;2.33;;;;;;;18.10;36.90;100081.16;5020854;28;20029;-65
2022/12/14 06:46:58;;;;;;;6.65;2.58;;;;;;;18.08;36.93;100081.31;5020554;28;20544;-65
2022/12/14 06:49:23;;;;;;;5.97;2.75;;;;;;;18.09;37.20;100082.16;5020916;28;20120;-66
2022/12/14 06:51:49;;;;;;;7.20;2.60;;;;;;;18.09;36.62;100090.91;5020542;28;20037;-67
2022/12/14 06:54:15;;;;;;;6.50;2.65;;;;;;;18.08;37.31;100088.41;5020621;28;20044;-66
2022/12/14 06:56:42;;;;;;;7.78;2.72;;;;;;;18.07;37.07;100090.22;5020115;28;20049;-66
2022/12/14 06:59:08;;;;;;;5.85;2.40;;;;;;;18.08;37.14;100091.84;5002059;28;20079;-66
2022/12/14 07:01:34;;;;;;;7.43;3.10;;;;;;;18.10;36.88;100087.28;5020324;28;20029;-66
2022/12/14 07:04:00;;;;;;;5.35;2.30;;;;;;;18.08;36.94;100089.22;5020101;28;20029;-65
2022/12/14 07:06:30;;;;;;;6.20;2.67;;;;;;;18.10;37.34;100091.72;5021054;28;20029;-66
2022/12/14 07:08:57;;;;;;;6.85;2.47;;;;;;;18.09;37.24;100092.72;5020374;28;20041;-66
2022/12/14 07:11:23;;;;;;;6.35;2.50;;;;;;;18.10;37.41;100097.00;5020580;28;20064;-66
2022/12/14 07:13:49;;;;;;;9.70;2.60;;;;;;;18.09;37.38;100093.53;5020130;28;20493;-66
2022/12/14 07:16:17;;;;;;;7.30;2.75;;;;;;;18.11;37.28;100098.66;5020452;28;20038;-65
2022/12/14 07:18:42;;;;;;;9.88;3.28;;;;;;;18.09;37.18;100088.25;5018983;28;20033;-65
2022/12/14 07:21:11;;;;;;;5.00;2.55;;;;;;;18.12;37.02;100095.88;5019101;28;20033;-66
2022/12/14 07:23:38;;;;;;;7.07;2.80;;;;;;;18.12;37.34;100098.53;5020282;28;20049;-65
2022/12/14 07:26:05;;;;;;;7.63;2.72;;;;;;;18.12;37.30;100105.63;5020587;28;20070;-66
2022/12/14 07:28:31;;;;;;;6.18;2.83;;;;;;;18.12;37.13;100102.97;5021425;28;20594;-66
2022/12/14 07:30:59;;;;;;;8.82;2.80;;;;;;;18.11;36.99;100104.75;5023922;28;20553;-65
2022/12/14 07:33:26;;;;;;;5.28;2.53;;;;;;;18.09;37.35;100104.06;5022996;28;20140;-65
2022/12/14 07:35:51;;;;;;;6.57;2.47;;;;;;;18.10;37.20;100103.13;5023531;28;20048;-66
2022/12/14 07:38:17;;;;;;;8.30;3.05;;;;;;;18.13;37.25;100110.75;5024135;28;20679;-68
2022/12/14 07:40:44;;;;;;;7.95;3.58;;;;;;;18.10;36.97;100111.03;5023596;28;20073;-66
2022/12/14 07:43:09;;;;;;;6.75;3.08;;;;;;;18.14;36.85;100108.94;5023623;28;20072;-66
2022/12/14 07:45:35;;;;;;;8.23;2.95;;;;;;;18.13;36.92;100104.63;5024039;28;20065;-66
2022/12/14 07:48:00;;;;;;;8.68;3.20;;;;;;;18.14;37.43;100114.22;5023403;28;20042;-66
2022/12/14 07:50:26;;;;;;;5.55;3.00;;;;;;;18.13;37.60;100110.75;5023961;28;20039;-67
2022/12/14 07:52:51;;;;;;;7.55;3.05;;;;;;;18.15;37.83;100102.69;5023643;28;20057;-66
2022/12/14 07:55:16;;;;;;;7.20;3.03;;;;;;;18.17;37.69;100099.91;5023259;28;20072;-66
2022/12/14 07:57:42;;;;;;;7.55;3.20;;;;;;;18.19;38.08;100106.69;5023186;28;20034;-67
2022/12/14 08:00:08;;;;;;;6.80;2.85;;;;;;;18.22;37.94;100109.03;5023015;28;20037;-68
2022/12/14 08:02:34;;;;;;;5.88;2.83;;;;;;;18.16;37.89;100098.25;5023232;28;20544;-66
2022/12/14 08:04:59;;;;;;;6.80;2.75;;;;;;;18.20;37.68;100110.16;5023523;28;20049;-66
2022/12/14 08:07:26;;;;;;;6.80;2.77;;;;;;;18.21;37.66;100111.81;5023584;28;20036;-66
2022/12/14 08:09:51;;;;;;;8.15;2.92;;;;;;;18.17;37.40;100103.38;5023302;28;20270;-68
2022/12/14 08:12:16;;;;;;;6.47;3.08;;;;;;;18.24;37.41;100115.00;5022262;28;20029;-66
2022/12/14 08:14:42;;;;;;;6.60;3.03;;;;;;;18.23;37.66;100118.63;5022950;28;20163;-67
2022/12/14 08:17:07;;;;;;;7.60;2.77;;;;;;;18.24;37.44;100122.09;5022874;28;20262;-65
2022/12/14 08:19:32;;;;;;;7.22;3.22;;;;;;;18.25;37.41;100121.13;5023017;28;20361;-67
2022/12/14 08:21:57;;;;;;;7.55;3.45;;;;;;;18.24;37.33;100122.91;5022189;28;20111;-65
2022/12/14 08:24:23;;;;;;;8.03;3.30;;;;;;;18.25;37.69;100123.75;5022824;28;20608;-67
2022/12/14 08:26:48;;;;;;;8.18;3.60;;;;;;;18.25;37.16;100126.41;5022720;28;20262;-65
2022/12/14 08:29:14;;;;;;;7.05;3.25;;;;;;;18.24;37.87;100130.81;5023253;28;20116;-67
2022/12/14 08:31:39;;;;;;;6.80;3.28;;;;;;;18.25;37.68;100135.13;5022844;28;20033;-64
2022/12/14 08:34:05;;;;;;;5.90;3.17;;;;;;;18.28;37.47;100134.03;5022560;28;20397;-65
2022/12/14 08:36:33;;;;;;;6.78;3.28;;;;;;;18.26;37.59;100128.03;5022773;28;21125;-66
2022/12/14 08:39:04;;;;;;;6.60;3.08;;;;;;;18.26;37.55;100128.03;5022107;28;20108;-65
2022/12/14 08:41:29;;;;;;;9.88;3.80;;;;;;;18.30;37.38;100132.88;5021529;28;20086;-65
2022/12/14 08:43:56;;;;;;;8.18;3.05;;;;;;;18.29;37.62;100131.25;5021745;28;20033;-68
2022/12/14 08:46:23;;;;;;;8.15;3.38;;;;;;;18.30;37.39;100135.53;5022630;28;20060;-66
2022/12/14 08:48:50;;;;;;;8.15;3.17;;;;;;;18.28;37.35;100132.22;5022589;28;20048;-66
2022/12/14 08:51:16;;;;;;;10.10;3.45;;;;;;;18.32;37.36;100140.66;5022738;28;20386;-67
2022/12/14 08:53:41;;;;;;;9.05;3.63;;;;;;;18.33;37.53;100137.06;5022023;28;20615;-66
2022/12/14 08:56:12;;;;;;;8.20;3.35;;;;;;;18.33;37.30;100134.44;5021663;28;20033;-65
2022/12/14 08:58:38;;;;;;;7.90;3.60;;;;;;;18.36;37.35;100136.78;5022329;28;20103;-67
2022/12/14 09:01:08;;;;;;;7.85;3.60;;;;;;;18.37;37.29;100138.41;5022604;28;20030;-66
2022/12/14 09:03:33;;;;;;;8.45;3.35;;;;;;;18.36;37.10;100123.59;5022120;28;20055;-66
2022/12/14 09:06:03;;;;;;;7.78;3.40;;;;;;;18.38;37.45;100126.09;5021480;28;20041;-67
2022/12/14 09:08:30;;;;;;;8.52;3.35;;;;;;;18.38;37.18;100126.09;5022637;28;20063;-66
2022/12/14 09:10:55;;;;;;;7.80;3.33;;;;;;;18.37;37.18;100133.16;5021799;28;20732;-66
2022/12/14 09:13:21;;;;;;;6.82;3.30;;;;;;;18.40;37.31;100140.78;5021747;28;20034;-65
2022/12/14 09:15:55;;;;;;;7.88;3.60;;;;;;;18.41;37.06;100146.91;5021242;28;20898;-66
2022/12/14 09:18:20;;;;;;;;;;;;;;;18.48;37.05;100147.97;5022500;28;20033;-67
2022/12/14 09:20:46;;;;;;;9.70;3.63;;;;;;;18.45;37.13;100146.47;5021734;28;19917;-66
2022/12/14 09:23:11;;;;;;;7.95;3.50;;;;;;;18.44;37.27;100150.09;5020113;28;20033;-67
2022/12/14 09:25:36;;;;;;;8.93;3.63;;;;;;;18.46;37.43;100157.84;5003480;28;20037;-66
2022/12/14 09:28:01;;;;;;;8.07;3.40;;;;;;;18.45;37.26;100154.38;5036304;28;20296;-65
2022/12/14 09:30:27;;;;;;;7.68;3.20;;;;;;;18.45;37.13;100150.91;5022016;28;20719;-66
2022/12/14 09:32:52;;;;;;;8.20;3.67;;;;;;;18.43;37.15;100151.03;5021530;28;20109;-66
2022/12/14 09:35:17;;;;;;;7.03;3.20;;;;;;;18.45;37.26;100157.03;5021434;28;20136;-67
2022/12/14 09:37:42;;;;;;;7.82;3.42;;;;;;;18.42;37.05;100159.97;5021491;28;20037;-68
2022/12/14 09:40:10;;;;;;;6.27;3.47;;;;;;;18.45;36.90;100157.03;5021702;28;20025;-68
2022/12/14 09:42:52;;;;;;;6.95;3.53;;;;;;;18.43;36.42;100161.59;5021702;28;20349;-68
2022/12/14 09:45:26;;;;;;;8.57;3.92;;;;;;;18.43;36.57;100163.41;5018583;28;20094;-66
2022/12/14 09:48:04;;;;;;;9.70;4.00;;;;;;;18.44;36.42;100158.00;5020034;28;20049;-63
2022/12/14 09:50:30;;;;;;;8.73;3.80;;;;;;;18.45;35.96;100146.47;5019782;28;20036;-64
2022/12/14 09:53:00;;;;;;;7.53;3.45;;;;;;;18.44;35.84;100146.63;5021372;28;20385;-65
2022/12/14 09:55:34;;;;;;;7.50;3.22;;;;;;;18.43;35.63;100151.03;5022039;28;20470;-66
2022/12/14 09:58:05;;;;;;;7.25;3.60;;;;;;;18.40;36.04;100139.94;5020258;28;20041;-66
2022/12/14 10:00:39;;;;;;;6.78;3.67;;;;;;;18.42;35.89;100154.69;5018708;28;20037;-66
2022/12/14 10:03:41;;;;;;;7.35;3.47;;;;;;;18.45;35.99;100164.09;5019720;28;20033;-65
2022/12/14 10:06:27;;;;;;;8.95;3.65;;;;;;;18.40;35.77;100159.25;5020358;28;20136;-66
2022/12/14 10:09:25;;;;;;;10.07;3.58;;;;;;;18.45;36.32;100164.09;5020202;28;20037;-66
2022/12/14 10:12:38;;;;;;;8.55;3.83;;;;;;;18.49;36.17;100157.56;5015348;28;20049;-66
2022/12/14 10:15:26;;;;;;;5.90;3.13;;;;;;;18.46;35.87;100149.94;4920331;29;20051;-66
2022/12/14 10:18:30;;;;;;;7.90;3.80;;;;;;;18.50;35.88;100151.31;4905007;29;20464;-67
2022/12/14 10:21:11;;;;;;;9.15;3.83;;;;;;;18.45;34.06;100137.72;5013913;28;20111;-66
2022/12/14 10:23:41;;;;;;;6.60;3.83;;;;;;;18.49;34.64;100139.09;5020405;28;20037;-67
2022/12/14 10:26:14;;;;;;;8.88;4.13;;;;;;;18.47;35.11;100133.97;5020277;28;20073;-65
2022/12/14 10:28:49;;;;;;;8.60;3.72;;;;;;;18.49;34.84;100144.38;5019544;28;20029;-66
2022/12/14 10:31:36;;;;;;;9.40;3.83;;;;;;;18.48;35.33;100147.97;5019119;28;20044;-66
2022/12/14 10:34:17;;;;;;;7.82;3.42;;;;;;;18.47;35.35;100155.06;5019254;28;20025;-68
2022/12/14 10:36:50;;;;;;;8.77;3.67;;;;;;;18.49;35.25;100147.84;5018555;28;20614;-68
2022/12/14 10:40:00;;;;;;;6.03;3.17;;;;;;;18.51;35.56;100147.69;5019457;28;20045;-67
2022/12/14 10:43:03;;;;;;;9.32;3.65;;;;;;;18.53;35.63;100153.66;5005864;28;20541;-67
2022/12/14 10:45:47;;;;;;;11.88;4.05;;;;;;;18.49;35.56;100154.94;5020025;28;20083;-68
2022/12/14 10:48:29;;;;;;;10.23;3.50;;;;;;;18.48;35.29;100148.84;5020218;28;20084;-69
2022/12/14 10:51:02;;;;;;;8.85;3.45;;;;;;;18.47;35.35;100149.78;5019768;28;20474;-68
2022/12/14 10:53:48;;;;;;;10.48;3.08;;;;;;;18.48;35.48;100153.25;5019752;28;20025;-66
2022/12/14 10:56:38;;;;;;;9.93;4.78;;;;;;;18.49;35.28;100155.75;5017266;28;20148;-68
2022/12/14 10:59:28;;;;;;;7.57;3.50;;;;;;;18.52;35.48;100154.66;5019495;28;20056;-65
2022/12/14 11:02:05;;;;;;;7.75;3.08;;;;;;;18.54;35.11;100154.50;5019894;28;20033;-66
2022/12/14 11:04:35;;;;;;;10.30;3.15;;;;;;;18.52;35.14;100149.38;5022323;28;20034;-68
2022/12/14 11:07:07;;;;;;;8.02;3.30;;;;;;;18.46;35.03;100150.75;5023622;28;20033;-65
2022/12/14 11:09:33;;;;;;;8.77;4.05;;;;;;;18.49;34.96;100150.47;5022923;28;20029;-66
2022/12/14 11:12:02;;;;;;;6.88;3.20;;;;;;;18.46;35.06;100153.41;5023623;28;20037;-65
2022/12/14 11:14:28;;;;;;;9.13;3.40;;;;;;;18.52;34.92;100159.91;5023535;28;20029;-65
2022/12/14 11:16:54;;;;;;;7.30;4.10;;;;;;;18.54;34.96;100163.25;5023748;28;20124;-65
2022/12/14 11:19:21;;;;;;;8.38;3.28;;;;;;;18.52;35.09;100153.78;5023716;28;20540;-67
2022/12/14 11:21:48;;;;;;;7.50;3.17;;;;;;;18.53;35.23;100152.81;5023331;28;20033;-66
2022/12/14 11:24:24;;;;;;;7.40;2.92;;;;;;;18.54;35.36;100157.13;5023224;28;20440;-66
2022/12/14 11:26:53;;;;;;;7.20;3.00;;;;;;;18.52;35.70;100159.06;5023406;28;20061;-67
2022/12/14 11:29:34;;;;;;;7.72;2.80;;;;;;;18.55;35.39;100161.41;5023106;28;20388;-67
2022/12/14 11:31:59;;;;;;;6.03;3.10;;;;;;;18.55;35.39;100149.09;5019930;28;20039;-66
2022/12/14 11:34:37;;;;;;;8.48;2.92;;;;;;;18.59;35.79;100160.16;5023086;28;20049;-66
2022/12/14 11:37:25;;;;;;;5.30;2.95;;;;;;;18.60;35.58;100157.38;5023177;28;20056;-66
2022/12/14 11:39:54;;;;;;;8.20;3.17;;;;;;;18.61;35.45;100148.50;5023556;28;20105;-66
2022/12/14 11:42:20;;;;;;;10.07;3.10;;;;;;;18.64;35.37;100158.78;5023999;28;20515;-66
2022/12/14 11:44:48;;;;;;;7.60;3.05;;;;;;;18.63;35.23;100154.47;5023007;28;20076;-65
2022/12/14 11:47:16;;;;;;;5.97;3.20;;;;;;;18.65;35.37;100149.03;5023966;28;20057;-65
2022/12/14 11:49:43;;;;;;;6.80;3.20;;;;;;;18.68;35.52;100149.56;5023437;28;20033;-67
2022/12/14 11:52:38;;;;;;;7.88;2.90;;;;;;;18.68;35.43;100151.38;5023426;28;20041;-66
2022/12/14 11:55:11;;;;;;;6.22;2.80;;;;;;;18.64;35.96;100150.84;5021689;28;20029;-67